Time;durP1;ratioP1;P1;durP2;ratioP2;P2;SDS_P1;SDS_P2;PMS_P1;PMS_P2;Temp;Humidity;BMP_temperature;BMP_pressure;BME280_temperature;BME280_humidity;BME280_pressure;Samples;Min_cycle;Max_cycle;Signal;HPM_P1;HPM_P2
2022/10/21 00:07:20;;;;;;;2.40;0.93;;;19.90;51.40;;;;;;20684835;28;20042;-76
2022/10/21 00:17:20;;;;;;;0.98;0.70;;;19.90;51.50;;;;;;20650783;28;20042;-75
2022/10/21 00:27:22;;;;;;;1.63;1.10;;;19.80;51.50;;;;;;20693756;28;20069;-76
2022/10/21 00:37:22;;;;;;;1.60;0.90;;;19.80;51.60;;;;;;20631489;28;20397;-75
2022/10/21 00:47:23;;;;;;;2.25;1.15;;;19.80;51.70;;;;;;20664565;28;20038;-75
2022/10/21 00:57:24;;;;;;;0.82;0.60;;;19.70;51.70;;;;;;20650741;28;20042;-75
2022/10/21 01:07:24;;;;;;;1.50;0.98;;;19.70;51.70;;;;;;20676067;28;20035;-75
2022/10/21 01:17:38;;;;;;;0.97;0.60;;;19.70;51.80;;;;;;20647803;28;20038;-75
2022/10/21 01:28:03;;;;;;;2.50;0.85;;;19.60;51.90;;;;;;20673094;28;20293;-75
2022/10/21 01:38:33;;;;;;;1.77;1.00;;;19.60;52.00;;;;;;20652211;28;20158;-75
2022/10/21 01:48:36;;;;;;;1.63;1.02;;;19.60;52.00;;;;;;20658904;28;20118;-75
2022/10/21 01:58:37;;;;;;;2.65;1.02;;;19.50;52.00;;;;;;21018701;23;20057;-75
2022/10/21 02:08:37;;;;;;;2.13;1.05;;;19.50;52.10;;;;;;20657997;28;20030;-76
2022/10/21 02:18:38;;;;;;;2.42;1.30;;;19.50;52.20;;;;;;20667140;28;20022;-75
2022/10/21 02:28:39;;;;;;;2.50;1.13;;;19.50;52.30;;;;;;20640144;28;20472;-75
2022/10/21 02:38:48;;;;;;;2.08;1.15;;;19.40;52.20;;;;;;20656128;28;20141;-74
2022/10/21 02:48:48;;;;;;;1.60;1.00;;;19.40;52.30;;;;;;20656636;28;20464;-76
2022/10/21 02:58:49;;;;;;;2.42;1.10;;;19.40;52.50;;;;;;20661284;28;20049;-75
2022/10/21 03:08:50;;;;;;;1.85;1.20;;;19.30;52.50;;;;;;20654559;28;20089;-75
2022/10/21 03:18:52;;;;;;;1.90;1.13;;;19.30;52.60;;;;;;20652971;28;20034;-74
2022/10/21 03:28:52;;;;;;;2.58;1.50;;;19.30;52.70;;;;;;20654060;28;20712;-75
2022/10/21 03:38:53;;;;;;;1.63;1.10;;;19.30;52.80;;;;;;20658001;28;20069;-76
2022/10/21 03:48:53;;;;;;;2.25;1.23;;;19.30;52.90;;;;;;20643778;28;20042;-74
2022/10/21 03:58:54;;;;;;;2.20;1.23;;;19.20;52.90;;;;;;20668312;28;20038;-75
2022/10/21 04:08:56;;;;;;;1.05;0.70;;;19.20;53.00;;;;;;20643181;28;20388;-75
2022/10/21 04:18:56;;;;;;;1.50;1.02;;;19.20;53.10;;;;;;20651496;28;20065;-76
2022/10/21 04:28:57;;;;;;;2.15;1.27;;;19.10;53.10;;;;;;20663905;28;20066;-75
2022/10/21 04:38:59;;;;;;;2.65;1.38;;;19.10;53.20;;;;;;20670603;28;20026;-75
2022/10/21 04:48:59;;;;;;;1.83;0.98;;;19.10;53.30;;;;;;20670473;28;20137;-75
2022/10/21 04:59:00;;;;;;;1.77;1.30;;;19.00;53.30;;;;;;20667070;28;20400;-74
2022/10/21 05:09:01;;;;;;;1.20;1.00;;;19.10;53.40;;;;;;20633415;28;20535;-74
2022/10/21 05:19:01;;;;;;;2.05;1.23;;;19.00;53.50;;;;;;20685474;28;20343;-78
2022/10/21 05:29:02;;;;;;;2.25;1.60;;;19.00;53.60;;;;;;20651913;28;20034;-77
2022/10/21 05:39:04;;;;;;;1.58;1.08;;;18.90;53.60;;;;;;20651412;28;20030;-76
2022/10/21 05:49:05;;;;;;;1.80;1.02;;;18.90;53.70;;;;;;20659477;28;20030;-76
2022/10/21 05:59:06;;;;;;;1.92;1.40;;;18.90;53.80;;;;;;20669669;28;20057;-74
2022/10/21 06:09:06;;;;;;;1.45;0.95;;;18.90;53.90;;;;;;20661777;28;20153;-75
2022/10/21 06:19:07;;;;;;;1.60;1.15;;;18.90;54.00;;;;;;20650631;28;20022;-77
2022/10/21 06:29:08;;;;;;;2.45;1.42;;;18.80;54.00;;;;;;20686808;28;20037;-75
2022/10/21 06:39:08;;;;;;;1.45;1.10;;;18.80;54.10;;;;;;20666158;28;20048;-74
2022/10/21 06:49:09;;;;;;;2.00;1.30;;;18.80;54.20;;;;;;20704825;28;20608;-76
2022/10/21 06:59:09;;;;;;;2.40;1.25;;;18.80;54.30;;;;;;20659755;28;20320;-78
2022/10/21 07:09:10;;;;;;;1.83;1.27;;;18.70;54.30;;;;;;20660237;28;20481;-78
2022/10/21 07:19:11;;;;;;;2.43;1.47;;;18.70;54.40;;;;;;20697525;28;20049;-79
2022/10/21 07:29:13;;;;;;;1.13;0.82;;;18.70;54.50;;;;;;20680909;28;20037;-81
2022/10/21 07:39:14;;;;;;;1.40;1.02;;;18.70;54.60;;;;;;20679174;28;20053;-78
2022/10/21 07:49:18;;;;;;;1.23;0.90;;;18.60;54.60;;;;;;20684790;28;20068;-78
2022/10/21 07:59:20;;;;;;;2.65;1.00;;;18.60;54.70;;;;;;20699518;28;20050;-79
2022/10/21 08:09:21;;;;;;;1.33;0.88;;;18.60;54.80;;;;;;20694323;28;20083;-79
2022/10/21 08:19:26;;;;;;;2.35;1.25;;;18.60;54.90;;;;;;20691496;28;20058;-79
2022/10/21 08:29:27;;;;;;;2.23;1.03;;;18.60;54.90;;;;;;20686682;28;20484;-77
2022/10/21 08:39:28;;;;;;;2.42;1.25;;;18.60;55.00;;;;;;20684719;28;20480;-78
2022/10/21 08:49:45;;;;;;;1.55;0.82;;;18.60;55.00;;;;;;20688156;28;20117;-78
2022/10/21 08:59:46;;;;;;;2.58;1.13;;;18.60;55.10;;;;;;20699064;28;20419;-77
2022/10/21 09:09:55;;;;;;;1.10;0.85;;;18.60;55.10;;;;;;20663924;28;20037;-75
2022/10/21 09:20:26;;;;;;;1.52;0.90;;;18.60;55.10;;;;;;20674590;28;20404;-76
2022/10/21 09:30:26;;;;;;;1.13;0.75;;;18.60;55.10;;;;;;20664286;28;20039;-77
2022/10/21 09:40:28;;;;;;;1.30;0.98;;;18.60;55.10;;;;;;20643665;28;20542;-79
2022/10/21 09:50:29;;;;;;;1.55;0.93;;;18.60;54.90;;;;;;20698233;28;20045;-79
2022/10/21 10:00:48;;;;;;;1.63;1.00;;;18.70;54.90;;;;;;20673119;28;20042;-79
2022/10/21 10:10:49;;;;;;;0.73;0.60;;;18.70;54.80;;;;;;20693781;28;20724;-79
2022/10/21 10:21:10;;;;;;;1.27;1.02;;;18.80;54.70;;;;;;20675525;28;20025;-81
2022/10/21 10:31:10;;;;;;;1.02;0.73;;;18.90;54.50;;;;;;20686922;28;20049;-82
2022/10/21 10:41:15;;;;;;;4.23;0.77;;;18.90;54.40;;;;;;20705638;28;20494;-79
2022/10/21 10:51:23;;;;;;;3.08;0.80;;;19.00;54.30;;;;;;20660991;28;20400;-78
2022/10/21 11:01:26;;;;;;;1.95;1.00;;;19.20;54.20;;;;;;20705179;28;20093;-83
2022/10/21 11:11:42;;;;;;;1.38;0.68;;;19.20;53.90;;;;;;20664250;28;20065;-83
2022/10/21 11:21:53;;;;;;;1.05;0.68;;;19.30;53.50;;;;;;20687097;28;20129;-79
2022/10/21 11:32:17;;;;;;;2.40;0.90;;;19.40;53.40;;;;;;20652126;28;20404;-83
2022/10/21 11:42:43;;;;;;;1.33;0.73;;;19.50;53.30;;;;;;20682575;28;20133;-79
2022/10/21 11:53:14;;;;;;;2.20;0.90;;;19.60;53.10;;;;;;20698717;28;20034;-75
2022/10/21 12:03:30;;;;;;;2.70;0.75;;;19.70;52.90;;;;;;20698549;28;20053;-82
2022/10/21 12:13:51;;;;;;;2.33;1.20;;;19.60;52.80;;;;;;20707357;28;20038;-75
2022/10/21 12:24:21;;;;;;;2.53;1.00;;;19.60;52.80;;;;;;20680485;28;20030;-77
2022/10/21 12:34:22;;;;;;;2.35;0.90;;;19.60;52.90;;;;;;20675564;28;20034;-77
2022/10/21 12:44:24;;;;;;;2.00;0.90;;;19.50;53.20;;;;;;20646951;28;20037;-76
2022/10/21 12:54:27;;;;;;;3.45;0.98;;;19.50;53.20;;;;;;20637512;28;20556;-75
2022/10/21 13:04:31;;;;;;;2.55;1.40;;;19.60;53.40;;;;;;20657734;28;20033;-75
2022/10/21 13:14:45;;;;;;;3.08;1.00;;;19.50;53.40;;;;;;20673292;28;20041;-76
2022/10/21 13:24:46;;;;;;;1.25;0.70;;;19.50;53.40;;;;;;20670473;28;20129;-75
2022/10/21 13:34:50;;;;;;;1.10;0.70;;;19.50;53.50;;;;;;20672742;28;20598;-73
2022/10/21 13:44:53;;;;;;;1.90;0.70;;;19.50;53.50;;;;;;20672690;28;20034;-73
2022/10/21 13:54:58;;;;;;;4.40;1.25;;;19.40;54.30;;;;;;20652603;28;20049;-74
2022/10/21 14:05:02;;;;;;;2.33;0.80;;;19.40;53.90;;;;;;20659588;28;20053;-75
2022/10/21 14:15:05;;;;;;;1.85;1.13;;;19.40;54.50;;;;;;20663161;28;20481;-77
2022/10/21 14:25:14;;;;;;;2.90;1.20;;;19.40;54.70;;;;;;20706103;28;20481;-78
2022/10/21 14:35:18;;;;;;;2.47;1.50;;;19.40;54.70;;;;;;20690246;28;20157;-79
2022/10/21 14:45:32;;;;;;;3.38;1.40;;;19.40;54.60;;;;;;20690119;28;20109;-77
2022/10/21 14:55:35;;;;;;;3.35;1.33;;;19.30;54.60;;;;;;20674485;28;20034;-78
2022/10/21 15:05:38;;;;;;;1.85;1.23;;;19.30;54.70;;;;;;20669258;28;20404;-80
2022/10/21 15:15:40;;;;;;;3.38;1.30;;;19.30;54.60;;;;;;20676617;28;20088;-78
2022/10/21 15:25:40;;;;;;;3.25;1.27;;;19.30;54.70;;;;;;20689640;28;20787;-79
2022/10/21 15:35:41;;;;;;;2.10;1.30;;;19.30;54.70;;;;;;20682485;28;20053;-79
2022/10/21 15:45:42;;;;;;;1.33;1.00;;;19.30;54.80;;;;;;20667093;28;20296;-78
2022/10/21 15:55:43;;;;;;;1.95;1.05;;;19.30;54.80;;;;;;20673404;28;20400;-81
2022/10/21 16:05:43;;;;;;;2.60;1.40;;;19.30;54.90;;;;;;20682715;28;20030;-79
2022/10/21 16:15:47;;;;;;;1.67;1.40;;;19.20;54.90;;;;;;20677781;28;20029;-77
2022/10/21 16:25:48;;;;;;;2.13;1.00;;;19.20;55.00;;;;;;20686629;28;20044;-77
2022/10/21 16:36:11;;;;;;;4.10;1.33;;;19.20;55.10;;;;;;20669952;28;20117;-79
2022/10/21 16:46:17;;;;;;;3.30;1.63;;;19.20;55.20;;;;;;20703007;28;20376;-79
2022/10/21 16:56:18;;;;;;;1.38;0.98;;;19.20;55.30;;;;;;20654381;28;20472;-80
2022/10/21 17:06:21;;;;;;;2.55;1.25;;;19.20;55.30;;;;;;20684781;28;20045;-80
2022/10/21 17:16:22;;;;;;;1.73;1.00;;;19.20;55.30;;;;;;20703623;28;20041;-80
2022/10/21 17:26:23;;;;;;;1.60;1.02;;;19.20;55.40;;;;;;20680077;28;20045;-78
2022/10/21 17:36:25;;;;;;;4.97;1.15;;;19.10;55.60;;;;;;20701259;28;20042;-79
2022/10/21 17:46:26;;;;;;;1.80;1.10;;;19.10;55.70;;;;;;20669381;28;20061;-79
2022/10/21 17:56:27;;;;;;;2.07;1.30;;;19.20;55.90;;;;;;20673789;28;20042;-80
2022/10/21 18:06:28;;;;;;;3.53;1.27;;;19.10;55.90;;;;;;20666019;28;20468;-80
2022/10/21 18:16:28;;;;;;;2.97;0.95;;;19.10;55.90;;;;;;20687352;28;20029;-80
2022/10/21 18:26:30;;;;;;;1.77;1.02;;;19.10;56.00;;;;;;20705537;28;20065;-80
2022/10/21 18:36:31;;;;;;;1.77;1.08;;;19.00;56.00;;;;;;20683547;28;20034;-80
2022/10/21 18:46:31;;;;;;;1.92;1.10;;;19.00;56.00;;;;;;20688594;28;20085;-80
2022/10/21 18:56:32;;;;;;;1.60;0.90;;;19.00;56.10;;;;;;20687789;28;20084;-80
2022/10/21 19:06:41;;;;;;;1.42;0.80;;;19.00;56.10;;;;;;20687439;28;20060;-81
2022/10/21 19:16:46;;;;;;;2.45;1.02;;;19.00;56.20;;;;;;20719597;28;20045;-80
2022/10/21 19:26:54;;;;;;;1.85;1.08;;;19.00;56.20;;;;;;20701605;28;20026;-79
2022/10/21 19:36:55;;;;;;;1.95;1.30;;;19.00;56.20;;;;;;20688075;28;20544;-80
2022/10/21 19:46:57;;;;;;;1.00;0.90;;;19.00;56.30;;;;;;20693867;28;20440;-79
2022/10/21 19:56:59;;;;;;;1.92;1.20;;;19.00;56.40;;;;;;20682280;28;20030;-81
2022/10/21 20:07:00;;;;;;;1.67;1.33;;;18.90;56.40;;;;;;20700719;28;20043;-79
2022/10/21 20:17:00;;;;;;;1.63;1.02;;;18.90;56.50;;;;;;20700018;28;20562;-80
2022/10/21 20:27:01;;;;;;;2.90;1.00;;;18.90;56.60;;;;;;20687522;28;20129;-80
2022/10/21 20:37:01;;;;;;;1.67;1.13;;;18.90;56.60;;;;;;20690143;28;20060;-82
2022/10/21 20:47:03;;;;;;;1.15;0.95;;;18.90;56.80;;;;;;20664567;28;20476;-82
2022/10/21 20:57:04;;;;;;;1.05;0.82;;;18.90;56.90;;;;;;20680627;28;20101;-79
2022/10/21 21:07:12;;;;;;;1.30;0.98;;;18.80;56.90;;;;;;20685702;28;20500;-81
2022/10/21 21:17:15;;;;;;;1.52;1.17;;;18.90;57.00;;;;;;20708047;28;20049;-79
2022/10/21 21:27:16;;;;;;;0.93;0.80;;;18.80;57.00;;;;;;20692099;28;20463;-80
2022/10/21 21:37:18;;;;;;;1.30;1.07;;;18.80;57.10;;;;;;20666073;28;20038;-81
2022/10/21 21:47:18;;;;;;;1.52;0.93;;;18.80;57.20;;;;;;20698134;28;20305;-78
2022/10/21 21:57:19;;;;;;;1.40;0.90;;;18.80;57.20;;;;;;20666276;28;20113;-79
2022/10/21 22:07:20;;;;;;;1.08;0.88;;;18.80;57.30;;;;;;20664751;28;20374;-80
2022/10/21 22:17:21;;;;;;;1.07;0.90;;;18.70;57.30;;;;;;20683270;28;20064;-78
2022/10/21 22:27:22;;;;;;;2.50;1.08;;;18.70;57.30;;;;;;20696936;28;20648;-79
2022/10/21 22:37:22;;;;;;;1.52;1.05;;;18.70;57.50;;;;;;20728118;28;20029;-81
2022/10/21 22:47:23;;;;;;;1.27;0.65;;;18.70;57.50;;;;;;20686098;28;20097;-80
2022/10/21 22:57:24;;;;;;;0.88;0.88;;;18.70;57.50;;;;;;20730931;28;20045;-79
2022/10/21 23:07:25;;;;;;;2.28;0.90;;;18.70;57.60;;;;;;20705543;28;20355;-80
2022/10/21 23:17:27;;;;;;;3.80;1.00;;;18.70;57.60;;;;;;20711470;28;20073;-80
2022/10/21 23:27:27;;;;;;;0.77;0.63;;;18.70;57.60;;;;;;20712460;28;20037;-81
2022/10/21 23:37:28;;;;;;;1.20;0.70;;;18.70;57.70;;;;;;20685834;28;20440;-79
2022/10/21 23:47:29;;;;;;;1.38;0.70;;;18.70;57.70;;;;;;20676538;28;20333;-81
2022/10/21 23:57:30;;;;;;;1.02;0.75;;;18.70;57.80;;;;;;20698395;28;20486;-81
